Time;durP1;ratioP1;P1;durP2;ratioP2;P2;SDS_P1;SDS_P2;PMS_P1;PMS_P2;Temp;Humidity;BMP_temperature;BMP_pressure;BME280_temperature;BME280_humidity;BME280_pressure;Samples;Min_cycle;Max_cycle;Signal;HPM_P1;HPM_P2
2023/08/13 00:02:03;;;;;;;13.97;3.90;;;18.70;99.90;;;;;;5044275;28;20466;-83
2023/08/13 00:04:30;;;;;;;5.97;4.50;;;18.70;99.90;;;;;;5052372;28;20548;-82
2023/08/13 00:06:55;;;;;;;5.67;4.37;;;18.80;99.90;;;;;;5045904;28;20176;-84
2023/08/13 00:09:21;;;;;;;12.53;4.50;;;18.80;99.90;;;;;;5029863;28;21001;-82
2023/08/13 00:11:46;;;;;;;8.53;4.43;;;18.80;99.90;;;;;;5045322;28;20184;-83
2023/08/13 00:14:12;;;;;;;6.13;3.93;;;18.70;99.90;;;;;;5040718;28;20204;-84
2023/08/13 00:16:37;;;;;;;8.50;4.80;;;18.60;99.90;;;;;;5047698;28;20185;-84
2023/08/13 00:19:03;;;;;;;12.23;4.97;;;18.60;99.90;;;;;;5044735;28;20203;-84
2023/08/13 00:21:29;;;;;;;12.27;4.53;;;18.50;99.90;;;;;;5037385;28;20203;-84
2023/08/13 00:23:54;;;;;;;7.80;4.60;;;18.50;99.90;;;;;;5051224;28;20279;-82
2023/08/13 00:26:20;;;;;;;10.87;5.33;;;18.40;99.90;;;;;;5036346;28;20201;-82
2023/08/13 00:28:45;;;;;;;9.87;5.23;;;18.40;99.90;;;;;;5037011;28;20275;-83
2023/08/13 00:31:11;;;;;;;8.57;5.33;;;;;;;;;;5057372;28;20185;-80
2023/08/13 00:33:37;;;;;;;9.90;4.73;;;18.40;99.90;;;;;;5049760;28;20184;-82
2023/08/13 00:36:02;;;;;;;11.60;5.30;;;18.50;99.90;;;;;;5032601;28;20465;-83
2023/08/13 00:38:28;;;;;;;15.20;4.90;;;18.50;99.90;;;;;;5037969;28;20213;-82
2023/08/13 00:40:53;;;;;;;10.77;4.50;;;18.40;99.90;;;;;;5052882;28;20188;-82
2023/08/13 00:43:19;;;;;;;17.70;5.00;;;18.40;99.90;;;;;;5032030;28;20208;-83
2023/08/13 00:45:44;;;;;;;8.40;4.70;;;18.30;99.90;;;;;;5037540;28;20897;-84
2023/08/13 00:48:10;;;;;;;10.23;5.80;;;18.20;99.90;;;;;;5048773;28;20184;-85
2023/08/13 00:50:36;;;;;;;15.97;5.53;;;18.20;99.90;;;;;;5051438;28;20192;-82
2023/08/13 00:53:04;;;;;;;12.80;5.10;;;18.20;99.90;;;;;;5053102;28;20184;-84
2023/08/13 00:55:31;;;;;;;11.47;5.50;;;18.20;99.90;;;;;;5051669;28;20203;-84
2023/08/13 00:57:56;;;;;;;14.63;5.90;;;18.20;99.90;;;;;;5037405;28;20439;-85
2023/08/13 01:00:22;;;;;;;13.63;5.20;;;18.20;99.90;;;;;;5032662;28;20445;-83
2023/08/13 01:02:48;;;;;;;8.97;5.17;;;18.20;99.90;;;;;;5032446;28;20204;-84
2023/08/13 01:05:14;;;;;;;9.23;4.77;;;18.20;99.90;;;;;;5033878;28;20201;-82
2023/08/13 01:07:51;;;;;;;12.90;5.73;;;18.10;99.90;;;;;;5049216;28;20427;-81
2023/08/13 01:10:33;;;;;;;10.23;6.43;;;18.10;99.90;;;;;;5057744;28;20235;-82
2023/08/13 01:13:18;;;;;;;20.77;5.80;;;18.20;99.90;;;;;;5034867;28;21463;-82
2023/08/13 01:15:45;;;;;;;13.33;6.17;;;18.30;99.90;;;;;;5046801;28;20486;-81
2023/08/13 01:18:13;;;;;;;11.73;6.27;;;18.40;99.90;;;;;;5037348;28;20442;-81
2023/08/13 01:20:42;;;;;;;9.07;6.43;;;18.60;99.90;;;;;;5052148;28;20914;-83
2023/08/13 01:23:08;;;;;;;8.33;5.53;;;18.60;99.90;;;;;;5047528;28;20482;-82
2023/08/13 01:25:34;;;;;;;17.97;6.93;;;18.70;99.90;;;;;;5035303;28;20868;-83
2023/08/13 01:28:26;;;;;;;14.53;7.27;;;18.60;99.90;;;;;;5049919;28;20173;-82
2023/08/13 01:31:20;;;;;;;12.17;6.50;;;18.70;99.90;;;;;;5028331;28;21170;-82
2023/08/13 01:33:47;;;;;;;16.53;7.13;;;18.60;99.90;;;;;;5031960;28;20435;-80
2023/08/13 01:36:16;;;;;;;11.93;6.77;;;18.60;99.90;;;;;;5028439;28;20473;-82
2023/08/13 01:38:43;;;;;;;11.47;8.00;;;18.60;99.90;;;;;;5050218;28;20513;-83
2023/08/13 01:41:08;;;;;;;11.97;6.90;;;18.60;99.90;;;;;;5045318;28;20525;-83
2023/08/13 01:43:34;;;;;;;14.83;7.80;;;18.60;99.90;;;;;;5042484;28;20550;-81
2023/08/13 01:46:01;;;;;;;11.63;8.03;;;18.60;99.90;;;;;;5037960;28;20196;-82
2023/08/13 01:48:27;;;;;;;9.80;6.73;;;18.50;99.90;;;;;;5037781;28;20227;-83
2023/08/13 01:50:53;;;;;;;11.83;7.33;;;18.40;99.90;;;;;;5061525;28;20501;-84
2023/08/13 01:53:18;;;;;;;12.63;6.73;;;18.70;99.90;;;;;;5041087;28;20184;-84
2023/08/13 01:55:44;;;;;;;11.27;6.70;;;18.40;99.90;;;;;;5051869;28;20208;-83
2023/08/13 01:58:10;;;;;;;13.60;6.80;;;18.50;99.90;;;;;;5035364;28;20384;-85
2023/08/13 02:00:36;;;;;;;16.53;8.30;;;18.50;99.90;;;;;;5028791;28;20192;-83
2023/08/13 02:03:01;;;;;;;15.37;6.80;;;18.50;99.90;;;;;;5039794;28;20471;-82
2023/08/13 02:05:27;;;;;;;11.43;7.93;;;18.60;99.90;;;;;;5029523;28;21114;-82
2023/08/13 02:07:53;;;;;;;11.23;7.60;;;18.60;99.90;;;;;;5038461;28;20804;-82
2023/08/13 02:10:18;;;;;;;14.83;8.07;;;18.70;99.90;;;;;;5038545;28;20179;-82
2023/08/13 02:12:44;;;;;;;13.80;7.13;;;18.80;99.90;;;;;;5032274;28;20254;-82
2023/08/13 02:15:09;;;;;;;8.80;6.77;;;18.80;99.90;;;;;;5047504;28;20197;-83
2023/08/13 02:17:35;;;;;;;11.73;7.83;;;18.90;99.90;;;;;;5051880;28;20177;-82
2023/08/13 02:20:01;;;;;;;15.20;7.40;;;18.90;99.90;;;;;;5042169;28;20806;-83
2023/08/13 02:22:27;;;;;;;11.17;7.77;;;18.90;99.90;;;;;;5032261;28;20582;-83
2023/08/13 02:24:52;;;;;;;18.93;9.67;;;19.10;99.90;;;;;;5037000;28;20458;-84
2023/08/13 02:27:18;;;;;;;15.13;7.40;;;19.10;99.90;;;;;;5032685;28;20189;-82
2023/08/13 02:29:43;;;;;;;12.70;7.90;;;19.10;99.90;;;;;;5048904;28;20263;-82
2023/08/13 02:32:09;;;;;;;13.00;7.20;;;19.00;99.90;;;;;;5038468;28;20212;-82
2023/08/13 02:34:45;;;;;;;8.90;6.23;;;19.00;99.90;;;;;;5050803;28;20796;-84
2023/08/13 02:37:11;;;;;;;16.23;8.60;;;19.00;99.90;;;;;;5049109;28;20177;-82
2023/08/13 02:39:37;;;;;;;12.00;8.37;;;19.00;99.90;;;;;;5029195;28;20447;-82
2023/08/13 02:42:02;;;;;;;15.03;8.97;;;19.00;99.90;;;;;;5050826;28;20197;-83
2023/08/13 02:44:28;;;;;;;15.10;8.80;;;19.00;99.90;;;;;;5054047;28;20196;-83
2023/08/13 02:46:54;;;;;;;12.03;7.20;;;;;;;;;;5030103;28;20200;-82
2023/08/13 02:49:19;;;;;;;14.63;8.50;;;19.10;99.90;;;;;;5046929;28;20196;-83
2023/08/13 02:51:45;;;;;;;11.23;7.10;;;19.10;99.90;;;;;;5046745;28;20436;-83
2023/08/13 02:54:10;;;;;;;15.50;9.57;;;19.10;99.90;;;;;;5037758;28;20180;-83
2023/08/13 02:56:36;;;;;;;13.67;8.60;;;19.00;99.90;;;;;;5034652;28;20183;-83
2023/08/13 02:59:02;;;;;;;12.80;9.40;;;19.10;99.90;;;;;;5047448;28;20176;-84
2023/08/13 03:01:27;;;;;;;11.47;7.83;;;19.10;99.90;;;;;;5036973;28;20447;-85
2023/08/13 03:03:54;;;;;;;12.60;9.53;;;19.10;99.90;;;;;;5034361;28;20189;-81
2023/08/13 03:06:21;;;;;;;12.93;8.13;;;19.10;99.90;;;;;;5047125;28;20226;-85
2023/08/13 03:08:47;;;;;;;11.23;9.33;;;19.10;99.90;;;;;;5056962;28;20441;-82
2023/08/13 03:11:12;;;;;;;15.03;9.73;;;19.10;99.90;;;;;;5036421;28;20440;-84
2023/08/13 03:13:38;;;;;;;13.70;9.87;;;19.10;99.90;;;;;;5033348;28;20657;-85
2023/08/13 03:16:03;;;;;;;16.50;8.53;;;19.10;99.90;;;;;;5037220;28;20199;-83
2023/08/13 03:18:29;;;;;;;17.83;8.30;;;19.10;99.90;;;;;;5048320;28;20821;-84
2023/08/13 03:20:55;;;;;;;9.93;7.40;;;;;;;;;;5036691;28;21185;-81
2023/08/13 03:23:21;;;;;;;9.10;7.03;;;19.00;99.90;;;;;;5041452;28;20496;-84
2023/08/13 03:25:46;;;;;;;11.30;6.40;;;19.00;99.90;;;;;;5035342;28;20553;-82
2023/08/13 03:28:12;;;;;;;13.50;8.07;;;19.10;99.90;;;;;;5041721;28;20514;-81
2023/08/13 03:30:37;;;;;;;11.50;8.20;;;19.10;99.90;;;;;;5047073;28;20201;-82
2023/08/13 03:33:03;;;;;;;12.50;7.70;;;19.10;99.90;;;;;;5045268;28;20189;-82
2023/08/13 03:35:28;;;;;;;11.80;7.53;;;19.10;99.90;;;;;;5045315;28;20269;-83
2023/08/13 03:37:54;;;;;;;14.40;7.53;;;;;;;;;;5050318;28;20216;-84
2023/08/13 03:40:20;;;;;;;11.00;7.10;;;19.20;99.90;;;;;;5037118;28;20193;-83
2023/08/13 03:42:45;;;;;;;11.47;7.43;;;19.20;99.90;;;;;;5037035;28;20455;-83
2023/08/13 03:45:11;;;;;;;8.87;6.73;;;19.20;99.90;;;;;;5032554;28;20209;-83
2023/08/13 03:47:37;;;;;;;13.73;7.10;;;19.20;99.90;;;;;;5040554;28;20239;-82
2023/08/13 03:50:03;;;;;;;8.70;6.57;;;19.20;99.90;;;;;;5026127;28;20248;-82
2023/08/13 03:52:28;;;;;;;11.60;6.60;;;19.10;99.90;;;;;;5029397;28;20192;-82
2023/08/13 03:54:54;;;;;;;10.63;7.83;;;19.10;99.90;;;;;;5031735;28;20296;-83
2023/08/13 03:57:19;;;;;;;8.60;5.40;;;19.10;99.90;;;;;;5050791;28;20185;-83
2023/08/13 03:59:45;;;;;;;8.80;6.23;;;;;;;;;;5048898;28;20181;-83
2023/08/13 04:02:11;;;;;;;13.60;6.70;;;19.10;99.90;;;;;;5047482;28;20223;-82
2023/08/13 04:04:36;;;;;;;12.30;6.73;;;19.10;99.90;;;;;;5039940;28;21170;-83
2023/08/13 04:07:03;;;;;;;9.63;5.97;;;19.20;99.90;;;;;;5031632;28;20212;-84
2023/08/13 04:09:28;;;;;;;10.53;5.67;;;19.20;99.90;;;;;;5037166;28;20231;-83
2023/08/13 04:11:54;;;;;;;8.37;6.80;;;19.20;99.90;;;;;;5028950;28;20422;-83
2023/08/13 04:14:19;;;;;;;8.97;6.70;;;19.10;99.90;;;;;;5028636;28;20184;-83
2023/08/13 04:16:45;;;;;;;9.77;5.20;;;19.00;99.90;;;;;;5033912;28;20185;-83
2023/08/13 04:19:10;;;;;;;13.67;6.40;;;19.10;99.90;;;;;;5045357;28;20280;-83
2023/08/13 04:21:36;;;;;;;8.20;6.33;;;;;;;;;;5029754;28;20188;-83
2023/08/13 04:24:02;;;;;;;7.03;6.33;;;18.90;99.90;;;;;;5053974;28;20184;-84
2023/08/13 04:26:27;;;;;;;8.73;6.50;;;18.90;99.90;;;;;;5039206;28;20788;-85
2023/08/13 04:28:53;;;;;;;9.13;6.53;;;18.80;99.90;;;;;;5035415;28;20605;-83
2023/08/13 04:31:20;;;;;;;12.63;6.83;;;18.90;99.90;;;;;;5049366;28;20204;-83
2023/08/13 04:33:47;;;;;;;8.73;5.80;;;18.90;99.90;;;;;;5042660;28;20180;-82
2023/08/13 04:36:12;;;;;;;6.13;5.43;;;19.00;99.90;;;;;;5035948;28;21049;-84
2023/08/13 04:38:38;;;;;;;12.43;5.57;;;18.90;99.90;;;;;;5044453;28;20423;-84
2023/08/13 04:41:04;;;;;;;10.87;5.90;;;18.80;99.90;;;;;;5045997;28;20181;-83
2023/08/13 04:43:29;;;;;;;8.73;6.00;;;18.90;99.90;;;;;;5049614;28;20291;-83
2023/08/13 04:45:55;;;;;;;8.17;5.53;;;18.80;99.90;;;;;;5047483;28;20266;-83
2023/08/13 04:48:42;;;;;;;9.10;6.57;;;18.90;99.90;;;;;;5028784;28;20280;-85
2023/08/13 04:51:08;;;;;;;13.60;6.60;;;18.90;99.90;;;;;;5014687;28;20189;-83
2023/08/13 04:53:34;;;;;;;7.90;5.50;;;18.90;99.90;;;;;;5046751;28;20534;-84
2023/08/13 04:55:59;;;;;;;6.77;4.30;;;19.00;99.90;;;;;;5031189;28;20542;-83
2023/08/13 04:58:25;;;;;;;8.47;5.57;;;18.90;99.90;;;;;;5024824;28;20199;-82
2023/08/13 05:00:50;;;;;;;13.20;5.67;;;19.10;99.90;;;;;;5044264;28;20237;-82
2023/08/13 05:03:16;;;;;;;10.93;5.73;;;19.20;99.90;;;;;;5048707;28;20219;-84
2023/08/13 05:05:41;;;;;;;5.13;4.47;;;19.40;99.90;;;;;;5032894;28;20244;-81
2023/08/13 05:08:07;;;;;;;12.27;5.30;;;19.50;99.90;;;;;;5032237;28;20177;-84
2023/08/13 05:10:32;;;;;;;10.60;4.53;;;19.50;99.90;;;;;;5048850;28;20211;-84
2023/08/13 05:12:58;;;;;;;7.50;5.33;;;19.50;99.90;;;;;;5033530;28;20660;-82
2023/08/13 05:15:24;;;;;;;9.20;5.47;;;19.50;99.90;;;;;;5031822;28;20209;-83
2023/08/13 05:17:49;;;;;;;7.20;4.77;;;19.50;99.90;;;;;;5032665;28;20439;-84
2023/08/13 05:20:15;;;;;;;6.47;4.70;;;19.50;99.90;;;;;;5051426;28;20669;-84
2023/08/13 05:22:40;;;;;;;5.10;4.60;;;19.60;99.90;;;;;;5033144;28;20358;-83
2023/08/13 05:25:06;;;;;;;16.33;5.63;;;19.60;99.90;;;;;;5036191;28;20828;-84
2023/08/13 05:27:32;;;;;;;7.13;4.87;;;;;;;;;;5049957;28;20257;-83
2023/08/13 05:29:58;;;;;;;11.90;4.80;;;19.80;99.90;;;;;;5038879;28;21109;-84
2023/08/13 05:32:24;;;;;;;5.73;4.70;;;;;;;;;;5048911;28;20979;-82
2023/08/13 05:34:50;;;;;;;8.47;4.60;;;19.80;99.90;;;;;;5067362;28;20205;-83
2023/08/13 05:37:19;;;;;;;7.27;4.97;;;19.80;99.90;;;;;;5060845;28;20540;-82
2023/08/13 05:39:44;;;;;;;9.23;4.40;;;20.00;99.90;;;;;;5046759;28;20844;-79
2023/08/13 05:42:10;;;;;;;10.43;4.10;;;20.10;99.90;;;;;;5063465;28;20478;-83
2023/08/13 05:44:36;;;;;;;8.40;4.23;;;20.30;99.90;;;;;;5042195;28;20189;-86
2023/08/13 05:47:02;;;;;;;6.60;5.80;;;20.50;99.90;;;;;;5070883;28;20958;-84
2023/08/13 05:49:27;;;;;;;10.17;5.60;;;20.60;99.90;;;;;;5037755;28;20181;-82
2023/08/13 05:51:53;;;;;;;6.03;5.07;;;;;;;;;;5032221;28;20450;-83
2023/08/13 05:54:19;;;;;;;5.33;4.30;;;20.80;99.90;;;;;;5028839;28;21010;-82
2023/08/13 05:56:44;;;;;;;19.57;6.77;;;21.00;99.90;;;;;;5037238;28;20508;-85
2023/08/13 05:59:10;;;;;;;5.53;4.60;;;;;;;;;;5052168;28;20250;-84
2023/08/13 06:01:36;;;;;;;8.57;4.90;;;21.40;99.90;;;;;;5031872;28;20231;-80
2023/08/13 06:04:02;;;;;;;4.47;4.00;;;21.20;99.90;;;;;;5040457;28;20473;-82
2023/08/13 06:06:27;;;;;;;5.10;3.83;;;21.20;99.90;;;;;;5030337;28;20703;-83
2023/08/13 06:08:54;;;;;;;7.23;4.27;;;21.10;99.90;;;;;;5024170;28;20471;-83
2023/08/13 06:11:19;;;;;;;8.43;4.23;;;21.30;99.90;;;;;;5024334;28;20187;-84
2023/08/13 06:13:45;;;;;;;3.97;3.57;;;21.50;99.90;;;;;;5044142;28;20430;-83
2023/08/13 06:16:11;;;;;;;3.80;2.70;;;;;;;;;;5029603;28;20212;-83
2023/08/13 06:18:49;;;;;;;6.13;3.70;;;21.70;99.90;;;;;;5040472;28;20702;-86
2023/08/13 06:21:15;;;;;;;7.87;3.70;;;21.70;99.90;;;;;;5024084;28;20983;-83
2023/08/13 06:23:40;;;;;;;5.77;3.73;;;21.80;99.90;;;;;;5028083;28;20177;-85
2023/08/13 06:26:06;;;;;;;6.30;3.80;;;22.00;99.90;;;;;;5016888;28;20198;-86
2023/08/13 06:28:35;;;;;;;6.13;3.17;;;22.30;99.90;;;;;;5009692;28;20183;-84
2023/08/13 06:31:02;;;;;;;7.57;3.17;;;22.50;99.90;;;;;;5002325;28;20290;-82
2023/08/13 06:33:27;;;;;;;5.33;3.47;;;22.80;99.90;;;;;;5004469;28;20429;-84
2023/08/13 06:35:53;;;;;;;3.90;3.50;;;22.90;99.90;;;;;;5005376;28;20461;-84
2023/08/13 06:38:19;;;;;;;7.80;5.20;;;;;;;;;;5018982;28;20253;-81
2023/08/13 06:40:45;;;;;;;6.77;5.10;;;23.10;99.90;;;;;;5018178;28;20182;-84
2023/08/13 06:43:11;;;;;;;6.30;5.40;;;23.10;99.90;;;;;;5017518;28;20510;-85
2023/08/13 06:45:37;;;;;;;5.80;5.23;;;23.00;99.90;;;;;;5014547;28;20297;-83
2023/08/13 06:48:04;;;;;;;7.20;4.63;;;23.10;99.90;;;;;;5001302;28;20439;-84
2023/08/13 06:50:30;;;;;;;9.90;5.33;;;23.10;99.90;;;;;;5003969;28;20791;-82
2023/08/13 06:52:56;;;;;;;5.10;4.60;;;23.20;99.90;;;;;;5026028;28;20856;-83
2023/08/13 06:55:23;;;;;;;12.20;5.73;;;23.20;99.90;;;;;;5004111;28;20465;-82
2023/08/13 06:57:48;;;;;;;12.37;4.90;;;23.20;99.90;;;;;;5003247;28;20998;-84
2023/08/13 07:00:15;;;;;;;5.23;4.73;;;23.30;99.90;;;;;;5016431;28;20546;-81
2023/08/13 07:02:41;;;;;;;6.53;5.40;;;23.50;99.90;;;;;;5027307;28;20237;-81
2023/08/13 07:05:11;;;;;;;5.80;3.30;;;23.90;99.90;;;;;;5007442;28;20473;-83
2023/08/13 07:07:36;;;;;;;3.83;2.77;;;24.50;99.90;;;;;;5003943;28;20170;-81
2023/08/13 07:10:04;;;;;;;5.83;2.53;;;;;;;;;;5021115;28;20451;-85
2023/08/13 07:12:29;;;;;;;4.67;3.60;;;25.30;99.90;;;;;;5021528;28;20531;-84
2023/08/13 07:14:55;;;;;;;5.00;4.47;;;25.90;99.90;;;;;;5017518;28;20461;-83
2023/08/13 07:17:21;;;;;;;5.73;4.90;;;26.70;99.90;;;;;;5021688;28;20206;-83
2023/08/13 07:19:49;;;;;;;5.70;4.57;;;26.80;99.90;;;;;;5003480;28;20456;-80
2023/08/13 07:22:16;;;;;;;7.17;4.50;;;27.60;99.90;;;;;;5006655;28;20181;-82
2023/08/13 07:24:42;;;;;;;5.30;4.53;;;;;;;;;;5001846;28;20503;-81
2023/08/13 07:27:10;;;;;;;4.90;3.30;;;28.20;99.90;;;;;;5002312;28;20599;-82
2023/08/13 07:29:35;;;;;;;5.30;2.70;;;28.30;99.90;;;;;;4987078;28;20439;-82
2023/08/13 07:32:01;;;;;;;3.20;2.50;;;27.80;99.90;;;;;;4993878;28;20441;-84
2023/08/13 07:34:27;;;;;;;3.67;3.00;;;27.20;99.90;;;;;;4998628;28;20287;-81
2023/08/13 07:36:53;;;;;;;3.33;2.80;;;;;;;;;;5001052;28;20207;-84
2023/08/13 07:39:19;;;;;;;3.33;2.43;;;;;;;;;;4988095;28;20191;-81
2023/08/13 07:41:48;;;;;;;7.40;2.80;;;;;;;;;;5008769;28;20537;-82
2023/08/13 07:44:14;;;;;;;2.83;2.53;;;;;;;;;;4996823;28;20488;-80
2023/08/13 07:46:40;;;;;;;2.90;2.23;;;;;;;;;;5007108;28;20882;-81
2023/08/13 07:49:06;;;;;;;6.37;2.53;;;;;;;;;;4989269;28;21168;-84
2023/08/13 07:51:32;;;;;;;3.90;2.43;;;;;;;;;;4988933;28;20473;-85
2023/08/13 07:53:58;;;;;;;5.20;3.07;;;;;;;;;;5006046;28;20458;-84
2023/08/13 07:56:24;;;;;;;5.33;3.87;;;;;;;;;;4990715;28;20464;-83
2023/08/13 07:58:50;;;;;;;4.60;3.73;;;;;;;;;;4986869;28;20441;-85
2023/08/13 08:01:16;;;;;;;6.00;3.93;;;25.40;99.90;;;;;;4991076;28;20633;-85
2023/08/13 08:03:42;;;;;;;5.70;3.90;;;;;;;;;;4992136;28;20452;-83
2023/08/13 08:06:07;;;;;;;6.33;3.40;;;25.50;99.90;;;;;;4984496;28;20475;-82
2023/08/13 08:08:33;;;;;;;5.43;3.23;;;25.60;99.90;;;;;;5005301;28;20433;-83
2023/08/13 08:10:59;;;;;;;7.07;3.23;;;25.60;99.90;;;;;;4993596;28;20776;-80
2023/08/13 08:13:25;;;;;;;3.73;3.03;;;;;;;;;;5000829;28;20191;-81
2023/08/13 08:15:50;;;;;;;3.30;2.50;;;26.60;99.90;;;;;;5004778;28;20536;-83
2023/08/13 08:18:16;;;;;;;5.20;2.60;;;;;;;;;;4993661;28;20506;-81
2023/08/13 08:20:42;;;;;;;3.10;2.33;;;;;;;;;;4997866;28;20626;-84
2023/08/13 08:23:08;;;;;;;3.50;2.80;;;;;;;;;;5009566;28;20472;-83
2023/08/13 08:25:34;;;;;;;7.07;2.90;;;27.00;99.90;;;;;;5004105;28;20471;-83
2023/08/13 08:27:59;;;;;;;8.17;2.90;;;27.10;99.90;;;;;;4988860;28;20448;-83
2023/08/13 08:30:25;;;;;;;5.37;3.07;;;27.80;99.90;;;;;;4988379;28;20194;-81
2023/08/13 08:32:50;;;;;;;5.30;2.73;;;28.60;99.90;;;;;;5005968;28;20399;-81
2023/08/13 08:35:16;;;;;;;4.50;3.00;;;29.60;99.90;;;;;;4999157;28;20245;-83
2023/08/13 08:37:42;;;;;;;6.03;1.87;;;;;;;;;;4993829;28;20205;-84
2023/08/13 08:40:08;;;;;;;3.40;2.67;;;30.30;99.90;;;;;;4999450;28;20445;-80
2023/08/13 08:42:35;;;;;;;5.10;2.67;;;31.30;99.90;;;;;;4990907;28;20443;-84
2023/08/13 08:45:02;;;;;;;4.97;2.13;;;35.40;99.90;;;;;;5009771;28;21003;-84
2023/08/13 08:47:28;;;;;;;3.00;2.33;;;;;;;;;;4993166;28;20452;-81
2023/08/13 08:49:55;;;;;;;3.40;2.33;;;37.10;99.90;;;;;;5006081;28;20518;-86
2023/08/13 08:52:21;;;;;;;2.70;2.40;;;;;;;;;;5000302;28;20511;-83
2023/08/13 08:54:48;;;;;;;2.83;2.07;;;36.70;97.70;;;;;;4989903;28;20885;-84
2023/08/13 08:57:14;;;;;;;3.00;2.73;;;36.90;94.90;;;;;;4988844;28;20535;-85
2023/08/13 08:59:40;;;;;;;3.23;2.87;;;36.70;95.30;;;;;;4981693;28;20448;-82
2023/08/13 09:02:06;;;;;;;3.27;2.40;;;36.70;94.70;;;;;;4983132;28;20438;-85
2023/08/13 09:04:31;;;;;;;3.70;2.63;;;37.30;95.10;;;;;;4992526;28;20335;-86
2023/08/13 09:06:59;;;;;;;2.93;2.37;;;37.70;92.80;;;;;;4993447;28;20186;-88
2023/08/13 09:09:26;;;;;;;2.67;2.30;;;36.00;92.10;;;;;;4996226;28;20186;-86
2023/08/13 09:11:53;;;;;;;3.17;2.73;;;34.50;93.80;;;;;;5006009;28;20476;-88
2023/08/13 09:14:23;;;;;;;3.47;2.80;;;33.00;97.30;;;;;;5011984;28;20453;-85
2023/08/13 09:16:51;;;;;;;4.10;2.70;;;31.80;99.80;;;;;;4999175;28;20471;-86
2023/08/13 09:19:18;;;;;;;5.37;3.07;;;30.30;99.90;;;;;;5001373;28;20576;-82
2023/08/13 09:21:53;;;;;;;6.50;2.60;;;29.30;99.90;;;;;;5007050;28;20932;-85
2023/08/13 09:24:48;;;;;;;3.33;2.43;;;29.20;99.90;;;;;;4992886;28;21041;-88
2023/08/13 09:27:25;;;;;;;2.80;2.60;;;29.60;99.90;;;;;;5010447;28;20570;-86
2023/08/13 09:30:27;;;;;;;2.83;2.27;;;30.20;99.90;;;;;;5008004;28;20446;-88
2023/08/13 09:32:52;;;;;;;3.17;2.23;;;;;;;;;;4996337;28;20592;-90
2023/08/13 09:46:19;;;;;;;1.60;1.50;;;35.20;94.80;;;;;;4885843;29;20471;-86
2023/08/13 09:49:00;;;;;;;3.63;1.67;;;37.30;92.70;;;;;;4877491;29;20449;-82
2023/08/13 09:51:52;;;;;;;1.40;1.30;;;39.10;79.80;;;;;;4949491;28;20448;-89
2023/08/13 09:55:06;;;;;;;1.73;1.40;;;40.10;75.20;;;;;;4956384;28;20447;-86
2023/08/13 09:58:00;;;;;;;3.00;1.50;;;41.60;65.30;;;;;;5031018;28;20492;-86
2023/08/13 10:00:34;;;;;;;3.07;2.40;;;41.20;65.70;;;;;;5010220;28;20533;-86
2023/08/13 10:03:25;;;;;;;4.27;2.60;;;39.60;70.30;;;;;;5011447;28;20450;-85
2023/08/13 10:05:58;;;;;;;3.53;1.70;;;39.60;72.80;;;;;;5016705;28;20499;-87
2023/08/13 10:08:26;;;;;;;2.60;1.70;;;38.80;65.80;;;;;;5014871;28;20468;-83
2023/08/13 10:11:22;;;;;;;2.20;2.00;;;38.20;67.30;;;;;;5023165;28;20456;-85
2023/08/13 10:13:54;;;;;;;1.60;1.37;;;37.70;65.80;;;;;;5023818;28;20502;-85
2023/08/13 10:19:08;;;;;;;4.93;2.73;;;;;;;;;;4981466;28;21287;-85
2023/08/13 10:21:38;;;;;;;4.70;2.13;;;32.00;89.90;;;;;;4997309;28;20443;-85
2023/08/13 10:24:09;;;;;;;4.50;2.30;;;32.10;90.40;;;;;;4985874;28;21310;-88
2023/08/13 10:26:35;;;;;;;4.00;2.10;;;31.50;93.00;;;;;;4985237;28;20466;-84
2023/08/13 10:29:20;;;;;;;2.20;1.70;;;31.00;94.40;;;;;;4987547;28;20641;-87
2023/08/13 10:31:59;;;;;;;2.90;1.87;;;30.30;95.80;;;;;;4985849;28;20866;-84
2023/08/13 10:34:53;;;;;;;7.50;2.43;;;29.30;99.90;;;;;;4989086;28;20445;-86
2023/08/13 10:37:23;;;;;;;5.93;2.47;;;29.40;99.90;;;;;;4988935;28;20580;-85
2023/08/13 10:39:55;;;;;;;2.80;1.90;;;30.20;99.90;;;;;;5006866;28;20473;-86
2023/08/13 10:42:46;;;;;;;4.03;2.20;;;31.00;99.90;;;;;;5004946;28;20476;-87
2023/08/13 10:45:15;;;;;;;2.10;1.90;;;31.00;99.90;;;;;;5006393;28;20460;-86
2023/08/13 10:47:55;;;;;;;7.17;2.43;;;30.80;99.00;;;;;;5003314;28;21136;-84
2023/08/13 10:50:28;;;;;;;4.60;2.70;;;31.20;99.90;;;;;;4996853;28;20437;-84
2023/08/13 10:53:01;;;;;;;4.10;2.40;;;31.60;99.90;;;;;;5006886;28;20441;-85
2023/08/13 10:55:30;;;;;;;4.73;2.23;;;31.80;99.90;;;;;;5007119;28;20476;-84
2023/08/13 10:57:55;;;;;;;3.00;2.07;;;31.80;99.90;;;;;;4994847;28;20469;-84
2023/08/13 11:00:23;;;;;;;2.40;1.90;;;30.90;99.90;;;;;;4990583;28;20506;-84
2023/08/13 11:02:53;;;;;;;2.37;2.17;;;30.90;99.90;;;;;;4993352;28;20184;-85
2023/08/13 11:05:21;;;;;;;2.97;1.73;;;31.00;99.90;;;;;;4991664;28;20472;-85
2023/08/13 11:07:47;;;;;;;3.13;1.80;;;;;;;;;;5002987;28;20460;-88
2023/08/13 11:10:20;;;;;;;6.17;2.07;;;31.30;99.40;;;;;;5013839;28;20436;-83
2023/08/13 11:12:49;;;;;;;2.70;1.83;;;30.20;99.90;;;;;;5010045;28;20497;-87
2023/08/13 11:15:16;;;;;;;3.93;2.57;;;29.20;99.90;;;;;;4991510;28;20464;-89
2023/08/13 11:17:49;;;;;;;2.93;2.50;;;28.60;99.90;;;;;;4987806;28;20486;-85
2023/08/13 11:20:18;;;;;;;1.77;1.60;;;27.80;99.90;;;;;;5004605;28;20480;-86
2023/08/13 11:22:44;;;;;;;2.73;2.47;;;27.50;99.90;;;;;;4989889;28;20436;-86
2023/08/13 11:25:10;;;;;;;3.50;2.40;;;27.90;99.90;;;;;;4989832;28;21306;-85
2023/08/13 11:27:35;;;;;;;3.73;2.10;;;28.50;99.90;;;;;;4993485;28;20198;-84
2023/08/13 11:30:01;;;;;;;3.10;2.30;;;;;;;;;;4993368;28;20437;-85
2023/08/13 11:32:27;;;;;;;4.17;2.40;;;;;;;;;;5005884;28;20179;-86
2023/08/13 11:34:53;;;;;;;3.17;2.50;;;;;;;;;;5007390;28;20556;-85
2023/08/13 11:37:22;;;;;;;2.70;2.07;;;28.00;99.90;;;;;;5011517;28;20460;-86
2023/08/13 11:39:52;;;;;;;6.23;2.07;;;28.00;99.90;;;;;;5004781;28;20444;-87
2023/08/13 11:42:20;;;;;;;4.60;2.37;;;;;;;;;;5000748;28;20441;-88
2023/08/13 11:44:53;;;;;;;3.23;2.10;;;27.10;99.90;;;;;;5015914;28;20463;-90
2023/08/13 11:47:35;;;;;;;5.53;2.13;;;26.90;99.90;;;;;;5015295;28;21166;-91
2023/08/13 11:50:02;;;;;;;3.00;2.70;;;;;;;;;;5003874;28;20463;-87
2023/08/13 11:52:46;;;;;;;2.57;2.33;;;26.40;99.90;;;;;;5013929;28;20444;-88
2023/08/13 11:55:13;;;;;;;2.60;2.40;;;26.70;99.90;;;;;;5014360;28;20465;-87
2023/08/13 11:57:43;;;;;;;4.53;2.80;;;26.70;99.90;;;;;;5014923;28;20549;-87
2023/08/13 12:00:09;;;;;;;5.60;2.80;;;;;;;;;;5021921;28;20434;-87
2023/08/13 12:02:37;;;;;;;3.00;2.13;;;26.80;99.90;;;;;;5021250;28;20444;-91
2023/08/13 12:05:03;;;;;;;2.80;2.40;;;27.50;99.90;;;;;;5001286;28;20493;-87
2023/08/13 12:07:53;;;;;;;3.70;2.70;;;26.70;99.90;;;;;;5007137;28;20434;-86
2023/08/13 12:10:43;;;;;;;3.87;2.30;;;26.60;99.90;;;;;;5002234;28;20506;-85
2023/08/13 12:13:27;;;;;;;3.07;2.70;;;26.50;99.90;;;;;;5003465;28;20537;-83
2023/08/13 12:15:56;;;;;;;3.10;2.37;;;;;;;;;;4998983;28;20482;-85
2023/08/13 12:18:22;;;;;;;3.47;2.80;;;;;;;;;;5013287;28;20473;-86
2023/08/13 12:20:51;;;;;;;3.20;2.13;;;27.00;99.90;;;;;;5012517;28;20465;-89
2023/08/13 12:23:17;;;;;;;4.60;2.60;;;;;;;;;;5014495;28;20449;-84
2023/08/13 12:25:46;;;;;;;4.20;2.60;;;27.50;99.90;;;;;;5012464;28;20455;-88
2023/08/13 12:28:13;;;;;;;2.53;2.33;;;27.40;99.90;;;;;;5014847;28;20485;-88
2023/08/13 12:30:42;;;;;;;3.73;2.60;;;;;;;;;;5003957;28;20994;-86
2023/08/13 12:33:18;;;;;;;;;;;;;;;;;;;;;
2023/08/13 12:36:12;;;;;;;4.33;2.67;;;28.10;99.90;;;;;;4995430;28;20474;-85
2023/08/13 12:43:15;;;;;;;3.03;2.73;;;27.50;99.90;;;;;;4991248;28;20434;-88
2023/08/13 12:49:23;;;;;;;2.60;2.20;;;27.20;99.90;;;;;;5032828;28;20451;-86
2023/08/13 12:52:19;;;;;;;3.37;2.23;;;27.20;99.90;;;;;;5030668;28;22012;-86
2023/08/13 12:55:03;;;;;;;1.57;1.47;;;26.90;99.90;;;;;;5016271;28;20476;-85
2023/08/13 12:58:34;;;;;;;2.07;1.63;;;26.90;99.90;;;;;;5033776;28;20465;-89
2023/08/13 13:01:44;;;;;;;4.43;1.97;;;27.30;99.90;;;;;;4968531;28;22015;-89
2023/08/13 13:04:27;;;;;;;2.00;1.77;;;27.70;99.90;;;;;;4994233;28;20696;-86
2023/08/13 13:06:59;;;;;;;2.73;2.30;;;27.80;99.90;;;;;;5001055;28;20450;-85
2023/08/13 13:09:53;;;;;;;2.70;1.70;;;27.60;99.90;;;;;;4993268;28;20962;-86
2023/08/13 13:12:24;;;;;;;2.00;1.80;;;27.30;99.90;;;;;;5012185;28;20510;-85
2023/08/13 13:15:12;;;;;;;3.03;1.63;;;27.00;99.90;;;;;;4994463;28;20486;-87
2023/08/13 13:18:27;;;;;;;2.53;1.83;;;26.90;99.90;;;;;;4995285;28;20461;-86
2023/08/13 13:21:38;;;;;;;;;;;;;;;;;;;;;
2023/08/13 13:24:52;;;;;;;1.67;1.43;;;27.10;99.90;;;;;;5005506;28;20531;-89
2023/08/13 13:28:00;;;;;;;3.80;1.90;;;27.00;99.90;;;;;;5009230;28;20443;-88
2023/08/13 13:31:19;;;;;;;2.63;1.77;;;27.10;99.90;;;;;;5010639;28;20449;-87
2023/08/13 13:34:17;;;;;;;2.10;1.90;;;27.20;99.90;;;;;;5009401;28;20645;-86
2023/08/13 13:37:10;;;;;;;2.67;2.07;;;27.10;99.90;;;;;;4995812;28;20514;-87